Saint Charles, Iowa
Current Conditions -  °F | °C
As of 8:55 AM on Monday 24 Nov 2014 (Local Time) from KI75 Reporting Station
Overcast Overcast  
Wind Chill: 13°   Ceiling: 2300
Heat Index: 27°   Visibility: 10mi
Dew Point: 20°   Wind: 22mph
Humidity: 75%   Direction: 280°W
Pressure: 29.57"   Gusts: 26mph
Location:  41.29°N, 93.81°W
Report Text: KI75 241455Z AUTO 28019G23KT 10SM OVC023 M03/M07 A2957 RMK AO2 T10281067
Loading
Personal Weather Stations






























Interactive Weather Map New forecast layout! Learn more

10-Day Weather Forecast

Advertisements
Track Severe Weather on mobile